sensor_id;sensor_type;location;lat;lon;timestamp;P1;durP1;ratioP1;P2;durP2;ratioP2
70388;SDS011;58659;49.050;8.530;2023-02-26T00:01:14;0.83;;;0.50;;
70388;SDS011;58659;49.050;8.530;2023-02-26T00:03:42;0.83;;;0.67;;
70388;SDS011;58659;49.050;8.530;2023-02-26T00:06:07;0.90;;;0.60;;
70388;SDS011;58659;49.050;8.530;2023-02-26T00:08:33;0.90;;;0.60;;
70388;SDS011;58659;49.050;8.530;2023-02-26T00:10:59;0.57;;;0.50;;
70388;SDS011;58659;49.050;8.530;2023-02-26T00:13:28;1.50;;;0.67;;
70388;SDS011;58659;49.050;8.530;2023-02-26T00:15:55;0.67;;;0.60;;
70388;SDS011;58659;49.050;8.530;2023-02-26T00:18:23;1.07;;;0.93;;
70388;SDS011;58659;49.050;8.530;2023-02-26T00:20:49;2.13;;;0.70;;
70388;SDS011;58659;49.050;8.530;2023-02-26T00:23:15;2.77;;;1.50;;
70388;SDS011;58659;49.050;8.530;2023-02-26T00:25:42;1.97;;;1.03;;
70388;SDS011;58659;49.050;8.530;2023-02-26T00:28:08;0.73;;;0.70;;
70388;SDS011;58659;49.050;8.530;2023-02-26T00:30:34;2.67;;;1.17;;
70388;SDS011;58659;49.050;8.530;2023-02-26T00:32:59;1.03;;;0.70;;
70388;SDS011;58659;49.050;8.530;2023-02-26T00:35:25;0.57;;;0.50;;
70388;SDS011;58659;49.050;8.530;2023-02-26T00:40:44;3.60;;;0.70;;
70388;SDS011;58659;49.050;8.530;2023-02-26T00:45:41;2.23;;;0.70;;
70388;SDS011;58659;49.050;8.530;2023-02-26T00:48:29;1.77;;;0.70;;
70388;SDS011;58659;49.050;8.530;2023-02-26T00:54:02;1.90;;;1.00;;
70388;SDS011;58659;49.050;8.530;2023-02-26T00:56:22;5.37;;;1.17;;
70388;SDS011;58659;49.050;8.530;2023-02-26T00:58:48;1.13;;;0.70;;
70388;SDS011;58659;49.050;8.530;2023-02-26T01:01:13;1.03;;;0.67;;
70388;SDS011;58659;49.050;8.530;2023-02-26T01:03:38;1.13;;;0.63;;
70388;SDS011;58659;49.050;8.530;2023-02-26T01:06:04;2.93;;;1.00;;
70388;SDS011;58659;49.050;8.530;2023-02-26T01:11:36;0.93;;;0.70;;
70388;SDS011;58659;49.050;8.530;2023-02-26T01:14:02;1.57;;;0.90;;
70388;SDS011;58659;49.050;8.530;2023-02-26T01:16:29;4.53;;;1.10;;
70388;SDS011;58659;49.050;8.530;2023-02-26T01:19:07;2.10;;;0.90;;
70388;SDS011;58659;49.050;8.530;2023-02-26T01:21:41;5.67;;;0.67;;
70388;SDS011;58659;49.050;8.530;2023-02-26T01:24:15;1.80;;;0.90;;
70388;SDS011;58659;49.050;8.530;2023-02-26T01:26:44;0.60;;;0.60;;
70388;SDS011;58659;49.050;8.530;2023-02-26T01:29:11;1.60;;;1.10;;
70388;SDS011;58659;49.050;8.530;2023-02-26T01:34:31;1.83;;;1.10;;
70388;SDS011;58659;49.050;8.530;2023-02-26T01:37:07;0.90;;;0.70;;
70388;SDS011;58659;49.050;8.530;2023-02-26T01:39:53;1.03;;;0.90;;
70388;SDS011;58659;49.050;8.530;2023-02-26T01:42:31;2.03;;;0.90;;
70388;SDS011;58659;49.050;8.530;2023-02-26T01:50:22;2.13;;;0.90;;
70388;SDS011;58659;49.050;8.530;2023-02-26T01:55:54;2.77;;;0.83;;
70388;SDS011;58659;49.050;8.530;2023-02-26T01:58:41;2.77;;;0.97;;
70388;SDS011;58659;49.050;8.530;2023-02-26T02:01:08;2.17;;;0.93;;
70388;SDS011;58659;49.050;8.530;2023-02-26T02:03:34;1.80;;;1.03;;
70388;SDS011;58659;49.050;8.530;2023-02-26T02:06:06;0.93;;;0.57;;
70388;SDS011;58659;49.050;8.530;2023-02-26T02:08:35;1.03;;;0.80;;
70388;SDS011;58659;49.050;8.530;2023-02-26T02:11:02;1.87;;;1.00;;
70388;SDS011;58659;49.050;8.530;2023-02-26T02:13:34;4.20;;;1.27;;
70388;SDS011;58659;49.050;8.530;2023-02-26T02:18:48;2.93;;;0.97;;
70388;SDS011;58659;49.050;8.530;2023-02-26T02:32:09;1.67;;;0.80;;
70388;SDS011;58659;49.050;8.530;2023-02-26T02:34:40;1.03;;;0.80;;
70388;SDS011;58659;49.050;8.530;2023-02-26T02:39:42;2.37;;;0.80;;
70388;SDS011;58659;49.050;8.530;2023-02-26T02:42:25;1.47;;;0.97;;
70388;SDS011;58659;49.050;8.530;2023-02-26T02:44:57;1.23;;;0.70;;
70388;SDS011;58659;49.050;8.530;2023-02-26T02:47:27;0.67;;;0.60;;
70388;SDS011;58659;49.050;8.530;2023-02-26T02:49:59;1.17;;;0.80;;
70388;SDS011;58659;49.050;8.530;2023-02-26T02:52:43;1.57;;;0.90;;
70388;SDS011;58659;49.050;8.530;2023-02-26T02:55:16;1.83;;;1.23;;
70388;SDS011;58659;49.050;8.530;2023-02-26T02:57:59;3.00;;;0.80;;
70388;SDS011;58659;49.050;8.530;2023-02-26T03:00:29;1.13;;;0.63;;
70388;SDS011;58659;49.050;8.530;2023-02-26T03:02:58;2.87;;;0.90;;
70388;SDS011;58659;49.050;8.530;2023-02-26T03:05:30;1.53;;;0.90;;
70388;SDS011;58659;49.050;8.530;2023-02-26T03:07:56;3.23;;;0.80;;
70388;SDS011;58659;49.050;8.530;2023-02-26T03:10:26;1.17;;;0.63;;
70388;SDS011;58659;49.050;8.530;2023-02-26T03:12:51;1.40;;;0.93;;
70388;SDS011;58659;49.050;8.530;2023-02-26T03:15:17;1.77;;;1.10;;
70388;SDS011;58659;49.050;8.530;2023-02-26T03:17:53;11.07;;;1.20;;
70388;SDS011;58659;49.050;8.530;2023-02-26T03:20:38;4.40;;;1.27;;
70388;SDS011;58659;49.050;8.530;2023-02-26T03:23:13;2.17;;;1.00;;
70388;SDS011;58659;49.050;8.530;2023-02-26T03:25:55;1.60;;;1.10;;
70388;SDS011;58659;49.050;8.530;2023-02-26T03:36:10;1.20;;;0.97;;
70388;SDS011;58659;49.050;8.530;2023-02-26T03:38:49;2.30;;;0.90;;
70388;SDS011;58659;49.050;8.530;2023-02-26T03:41:21;1.10;;;0.77;;
70388;SDS011;58659;49.050;8.530;2023-02-26T03:43:55;1.00;;;0.73;;
70388;SDS011;58659;49.050;8.530;2023-02-26T03:46:30;1.73;;;0.77;;
70388;SDS011;58659;49.050;8.530;2023-02-26T03:49:00;7.10;;;1.20;;
70388;SDS011;58659;49.050;8.530;2023-02-26T03:51:30;2.73;;;1.03;;
70388;SDS011;58659;49.050;8.530;2023-02-26T03:53:57;1.90;;;0.90;;
70388;SDS011;58659;49.050;8.530;2023-02-26T03:56:29;1.30;;;0.83;;
70388;SDS011;58659;49.050;8.530;2023-02-26T03:59:08;2.10;;;0.90;;
70388;SDS011;58659;49.050;8.530;2023-02-26T04:01:53;1.67;;;1.00;;
70388;SDS011;58659;49.050;8.530;2023-02-26T04:04:25;1.93;;;1.00;;
70388;SDS011;58659;49.050;8.530;2023-02-26T04:06:55;4.43;;;0.80;;
70388;SDS011;58659;49.050;8.530;2023-02-26T04:09:21;1.20;;;1.00;;
70388;SDS011;58659;49.050;8.530;2023-02-26T04:11:47;0.60;;;0.60;;
70388;SDS011;58659;49.050;8.530;2023-02-26T04:14:17;0.63;;;0.60;;
70388;SDS011;58659;49.050;8.530;2023-02-26T04:16:45;1.67;;;0.80;;
70388;SDS011;58659;49.050;8.530;2023-02-26T04:19:11;2.07;;;0.90;;
70388;SDS011;58659;49.050;8.530;2023-02-26T04:21:36;1.33;;;1.20;;
70388;SDS011;58659;49.050;8.530;2023-02-26T04:24:01;1.20;;;0.63;;
70388;SDS011;58659;49.050;8.530;2023-02-26T04:26:27;1.13;;;0.60;;
70388;SDS011;58659;49.050;8.530;2023-02-26T04:28:52;2.53;;;1.20;;
70388;SDS011;58659;49.050;8.530;2023-02-26T04:31:17;2.93;;;1.23;;
70388;SDS011;58659;49.050;8.530;2023-02-26T04:33:43;0.93;;;0.77;;
70388;SDS011;58659;49.050;8.530;2023-02-26T04:36:08;1.17;;;0.97;;
70388;SDS011;58659;49.050;8.530;2023-02-26T04:38:34;1.07;;;0.77;;
70388;SDS011;58659;49.050;8.530;2023-02-26T04:41:00;0.70;;;0.60;;
70388;SDS011;58659;49.050;8.530;2023-02-26T04:43:26;0.67;;;0.67;;
70388;SDS011;58659;49.050;8.530;2023-02-26T04:45:51;0.90;;;0.70;;
70388;SDS011;58659;49.050;8.530;2023-02-26T04:48:16;1.80;;;0.87;;
70388;SDS011;58659;49.050;8.530;2023-02-26T04:50:42;1.33;;;0.90;;
70388;SDS011;58659;49.050;8.530;2023-02-26T04:53:08;3.40;;;1.03;;
70388;SDS011;58659;49.050;8.530;2023-02-26T04:55:34;21.90;;;0.97;;
70388;SDS011;58659;49.050;8.530;2023-02-26T04:58:00;1.93;;;1.10;;
70388;SDS011;58659;49.050;8.530;2023-02-26T05:00:25;0.73;;;0.73;;
70388;SDS011;58659;49.050;8.530;2023-02-26T05:02:51;1.23;;;1.00;;
70388;SDS011;58659;49.050;8.530;2023-02-26T05:05:16;1.63;;;0.90;;
70388;SDS011;58659;49.050;8.530;2023-02-26T05:07:42;1.83;;;1.00;;
70388;SDS011;58659;49.050;8.530;2023-02-26T05:10:07;1.53;;;0.90;;
70388;SDS011;58659;49.050;8.530;2023-02-26T05:12:36;1.00;;;0.90;;
70388;SDS011;58659;49.050;8.530;2023-02-26T05:15:01;3.50;;;1.10;;
70388;SDS011;58659;49.050;8.530;2023-02-26T05:17:27;1.87;;;1.27;;
70388;SDS011;58659;49.050;8.530;2023-02-26T05:19:52;2.27;;;1.20;;
70388;SDS011;58659;49.050;8.530;2023-02-26T05:22:17;2.17;;;1.07;;
70388;SDS011;58659;49.050;8.530;2023-02-26T05:24:43;1.67;;;1.07;;
70388;SDS011;58659;49.050;8.530;2023-02-26T05:27:08;1.63;;;0.70;;
70388;SDS011;58659;49.050;8.530;2023-02-26T05:29:33;2.17;;;1.00;;
70388;SDS011;58659;49.050;8.530;2023-02-26T05:31:59;2.90;;;1.17;;
70388;SDS011;58659;49.050;8.530;2023-02-26T05:34:25;2.93;;;0.83;;
70388;SDS011;58659;49.050;8.530;2023-02-26T05:36:50;1.87;;;0.70;;
70388;SDS011;58659;49.050;8.530;2023-02-26T05:39:15;1.93;;;0.77;;
70388;SDS011;58659;49.050;8.530;2023-02-26T05:41:41;4.67;;;1.30;;
70388;SDS011;58659;49.050;8.530;2023-02-26T05:44:06;4.43;;;1.27;;
70388;SDS011;58659;49.050;8.530;2023-02-26T05:46:33;2.10;;;0.70;;
70388;SDS011;58659;49.050;8.530;2023-02-26T05:48:58;3.73;;;0.90;;
70388;SDS011;58659;49.050;8.530;2023-02-26T05:51:23;1.77;;;0.73;;
70388;SDS011;58659;49.050;8.530;2023-02-26T05:53:49;3.70;;;0.80;;
70388;SDS011;58659;49.050;8.530;2023-02-26T05:56:14;0.60;;;0.50;;
70388;SDS011;58659;49.050;8.530;2023-02-26T05:58:39;3.20;;;1.00;;
70388;SDS011;58659;49.050;8.530;2023-02-26T06:01:05;1.53;;;1.00;;
70388;SDS011;58659;49.050;8.530;2023-02-26T06:03:30;3.40;;;1.07;;
70388;SDS011;58659;49.050;8.530;2023-02-26T06:05:55;3.17;;;0.77;;
70388;SDS011;58659;49.050;8.530;2023-02-26T06:08:21;2.23;;;0.80;;
70388;SDS011;58659;49.050;8.530;2023-02-26T06:10:46;1.13;;;0.80;;
70388;SDS011;58659;49.050;8.530;2023-02-26T06:13:11;2.40;;;1.00;;
70388;SDS011;58659;49.050;8.530;2023-02-26T06:15:36;8.80;;;1.20;;
70388;SDS011;58659;49.050;8.530;2023-02-26T06:18:02;1.00;;;0.93;;
70388;SDS011;58659;49.050;8.530;2023-02-26T06:20:30;3.23;;;1.33;;
70388;SDS011;58659;49.050;8.530;2023-02-26T06:22:55;0.83;;;0.67;;
70388;SDS011;58659;49.050;8.530;2023-02-26T06:25:21;1.20;;;0.63;;
70388;SDS011;58659;49.050;8.530;2023-02-26T06:27:46;2.07;;;0.90;;
70388;SDS011;58659;49.050;8.530;2023-02-26T06:30:11;1.43;;;0.80;;
70388;SDS011;58659;49.050;8.530;2023-02-26T06:32:37;1.63;;;0.70;;
70388;SDS011;58659;49.050;8.530;2023-02-26T06:35:03;1.47;;;0.90;;
70388;SDS011;58659;49.050;8.530;2023-02-26T06:37:30;1.70;;;1.30;;
70388;SDS011;58659;49.050;8.530;2023-02-26T06:39:55;1.20;;;0.90;;
70388;SDS011;58659;49.050;8.530;2023-02-26T06:42:21;2.40;;;1.00;;
70388;SDS011;58659;49.050;8.530;2023-02-26T06:44:46;3.43;;;0.80;;
70388;SDS011;58659;49.050;8.530;2023-02-26T06:47:12;1.40;;;0.80;;
70388;SDS011;58659;49.050;8.530;2023-02-26T06:49:37;1.37;;;0.80;;
70388;SDS011;58659;49.050;8.530;2023-02-26T06:52:02;6.50;;;1.30;;
70388;SDS011;58659;49.050;8.530;2023-02-26T06:54:28;1.77;;;1.10;;
70388;SDS011;58659;49.050;8.530;2023-02-26T06:56:53;1.27;;;0.90;;
70388;SDS011;58659;49.050;8.530;2023-02-26T06:59:22;2.13;;;0.77;;
70388;SDS011;58659;49.050;8.530;2023-02-26T07:01:48;3.13;;;1.17;;
70388;SDS011;58659;49.050;8.530;2023-02-26T07:04:13;1.67;;;0.80;;
70388;SDS011;58659;49.050;8.530;2023-02-26T07:06:39;2.43;;;1.07;;
70388;SDS011;58659;49.050;8.530;2023-02-26T07:09:04;2.37;;;1.23;;
70388;SDS011;58659;49.050;8.530;2023-02-26T07:11:29;1.40;;;0.90;;
70388;SDS011;58659;49.050;8.530;2023-02-26T07:13:54;3.20;;;1.57;;
70388;SDS011;58659;49.050;8.530;2023-02-26T07:16:20;2.17;;;1.20;;
70388;SDS011;58659;49.050;8.530;2023-02-26T07:18:45;1.53;;;0.83;;
70388;SDS011;58659;49.050;8.530;2023-02-26T07:21:11;2.73;;;1.17;;
70388;SDS011;58659;49.050;8.530;2023-02-26T07:23:36;2.40;;;1.13;;
70388;SDS011;58659;49.050;8.530;2023-02-26T07:26:01;4.67;;;1.40;;
70388;SDS011;58659;49.050;8.530;2023-02-26T07:28:27;3.97;;;1.23;;
70388;SDS011;58659;49.050;8.530;2023-02-26T07:30:53;3.27;;;1.43;;
70388;SDS011;58659;49.050;8.530;2023-02-26T07:33:20;1.40;;;1.10;;
70388;SDS011;58659;49.050;8.530;2023-02-26T07:35:46;3.33;;;1.20;;
70388;SDS011;58659;49.050;8.530;2023-02-26T07:38:11;4.40;;;1.43;;
70388;SDS011;58659;49.050;8.530;2023-02-26T07:40:37;2.90;;;1.00;;
70388;SDS011;58659;49.050;8.530;2023-02-26T07:43:02;1.83;;;1.13;;
70388;SDS011;58659;49.050;8.530;2023-02-26T07:45:27;3.57;;;1.17;;
70388;SDS011;58659;49.050;8.530;2023-02-26T07:47:53;2.70;;;1.30;;
70388;SDS011;58659;49.050;8.530;2023-02-26T07:50:19;0.80;;;0.80;;
70388;SDS011;58659;49.050;8.530;2023-02-26T07:52:45;3.20;;;1.07;;
70388;SDS011;58659;49.050;8.530;2023-02-26T07:55:11;2.73;;;1.00;;
70388;SDS011;58659;49.050;8.530;2023-02-26T07:57:38;3.60;;;0.73;;
70388;SDS011;58659;49.050;8.530;2023-02-26T08:00:04;1.10;;;0.90;;
70388;SDS011;58659;49.050;8.530;2023-02-26T08:02:31;1.93;;;1.13;;
70388;SDS011;58659;49.050;8.530;2023-02-26T08:04:56;2.03;;;1.10;;
70388;SDS011;58659;49.050;8.530;2023-02-26T08:07:22;2.53;;;1.23;;
70388;SDS011;58659;49.050;8.530;2023-02-26T08:09:48;1.03;;;0.63;;
70388;SDS011;58659;49.050;8.530;2023-02-26T08:12:13;1.33;;;0.87;;
70388;SDS011;58659;49.050;8.530;2023-02-26T08:14:38;2.03;;;1.10;;
70388;SDS011;58659;49.050;8.530;2023-02-26T08:17:06;0.80;;;0.60;;
70388;SDS011;58659;49.050;8.530;2023-02-26T08:19:32;1.90;;;0.90;;
70388;SDS011;58659;49.050;8.530;2023-02-26T08:21:58;1.40;;;0.90;;
70388;SDS011;58659;49.050;8.530;2023-02-26T08:24:23;1.90;;;1.00;;
70388;SDS011;58659;49.050;8.530;2023-02-26T08:26:48;2.33;;;1.43;;
70388;SDS011;58659;49.050;8.530;2023-02-26T08:29:14;1.30;;;0.80;;
70388;SDS011;58659;49.050;8.530;2023-02-26T08:31:39;1.03;;;0.93;;
70388;SDS011;58659;49.050;8.530;2023-02-26T08:34:04;1.57;;;0.60;;
70388;SDS011;58659;49.050;8.530;2023-02-26T08:36:30;2.50;;;0.80;;
70388;SDS011;58659;49.050;8.530;2023-02-26T08:38:56;0.80;;;0.70;;
70388;SDS011;58659;49.050;8.530;2023-02-26T08:41:21;2.60;;;1.10;;
70388;SDS011;58659;49.050;8.530;2023-02-26T08:43:47;0.77;;;0.77;;
70388;SDS011;58659;49.050;8.530;2023-02-26T08:46:13;1.90;;;0.77;;
70388;SDS011;58659;49.050;8.530;2023-02-26T08:48:38;1.00;;;0.90;;
70388;SDS011;58659;49.050;8.530;2023-02-26T08:51:04;1.00;;;0.70;;
70388;SDS011;58659;49.050;8.530;2023-02-26T08:53:29;2.33;;;0.63;;
70388;SDS011;58659;49.050;8.530;2023-02-26T08:55:54;5.10;;;0.40;;
70388;SDS011;58659;49.050;8.530;2023-02-26T08:58:20;2.70;;;0.80;;
70388;SDS011;58659;49.050;8.530;2023-02-26T09:00:46;2.30;;;0.57;;
70388;SDS011;58659;49.050;8.530;2023-02-26T09:03:11;0.30;;;0.30;;
70388;SDS011;58659;49.050;8.530;2023-02-26T09:05:37;0.23;;;0.23;;
70388;SDS011;58659;49.050;8.530;2023-02-26T09:08:05;2.13;;;0.80;;
70388;SDS011;58659;49.050;8.530;2023-02-26T09:10:31;0.60;;;0.40;;
70388;SDS011;58659;49.050;8.530;2023-02-26T09:12:56;3.00;;;0.73;;
70388;SDS011;58659;49.050;8.530;2023-02-26T09:15:22;0.30;;;0.30;;
70388;SDS011;58659;49.050;8.530;2023-02-26T09:17:47;1.73;;;1.00;;
70388;SDS011;58659;49.050;8.530;2023-02-26T09:20:13;0.93;;;0.63;;
70388;SDS011;58659;49.050;8.530;2023-02-26T09:22:39;0.93;;;0.70;;
70388;SDS011;58659;49.050;8.530;2023-02-26T09:25:05;0.40;;;0.40;;
70388;SDS011;58659;49.050;8.530;2023-02-26T09:27:31;0.83;;;0.47;;
70388;SDS011;58659;49.050;8.530;2023-02-26T09:29:57;0.60;;;0.60;;
70388;SDS011;58659;49.050;8.530;2023-02-26T09:32:22;0.70;;;0.30;;
70388;SDS011;58659;49.050;8.530;2023-02-26T09:34:50;1.13;;;0.70;;
70388;SDS011;58659;49.050;8.530;2023-02-26T09:37:15;2.00;;;0.60;;
70388;SDS011;58659;49.050;8.530;2023-02-26T09:39:41;1.90;;;0.73;;
70388;SDS011;58659;49.050;8.530;2023-02-26T09:44:56;4.87;;;0.43;;
70388;SDS011;58659;49.050;8.530;2023-02-26T09:47:32;0.80;;;0.50;;
70388;SDS011;58659;49.050;8.530;2023-02-26T09:55:57;0.40;;;0.40;;
70388;SDS011;58659;49.050;8.530;2023-02-26T09:58:12;0.30;;;0.30;;
70388;SDS011;58659;49.050;8.530;2023-02-26T10:08:21;0.80;;;0.57;;
70388;SDS011;58659;49.050;8.530;2023-02-26T10:11:04;1.23;;;0.60;;
70388;SDS011;58659;49.050;8.530;2023-02-26T10:16:18;1.63;;;0.53;;
70388;SDS011;58659;49.050;8.530;2023-02-26T10:18:54;1.03;;;0.80;;
70388;SDS011;58659;49.050;8.530;2023-02-26T10:21:36;1.13;;;0.70;;
70388;SDS011;58659;49.050;8.530;2023-02-26T10:24:05;1.40;;;0.63;;
70388;SDS011;58659;49.050;8.530;2023-02-26T10:26:39;3.13;;;0.70;;
70388;SDS011;58659;49.050;8.530;2023-02-26T10:32:14;2.80;;;0.93;;
70388;SDS011;58659;49.050;8.530;2023-02-26T10:34:55;1.27;;;0.50;;
70388;SDS011;58659;49.050;8.530;2023-02-26T10:42:52;0.40;;;0.40;;
70388;SDS011;58659;49.050;8.530;2023-02-26T10:50:57;0.60;;;0.60;;
70388;SDS011;58659;49.050;8.530;2023-02-26T10:53:26;1.17;;;0.90;;
70388;SDS011;58659;49.050;8.530;2023-02-26T10:58:29;0.30;;;0.30;;
70388;SDS011;58659;49.050;8.530;2023-02-26T11:00:54;3.03;;;1.03;;
70388;SDS011;58659;49.050;8.530;2023-02-26T11:03:28;0.50;;;0.50;;
70388;SDS011;58659;49.050;8.530;2023-02-26T11:05:54;0.20;;;0.20;;
70388;SDS011;58659;49.050;8.530;2023-02-26T11:08:29;1.03;;;0.40;;
70388;SDS011;58659;49.050;8.530;2023-02-26T11:11:00;0.47;;;0.47;;
70388;SDS011;58659;49.050;8.530;2023-02-26T11:13:28;2.43;;;0.60;;
70388;SDS011;58659;49.050;8.530;2023-02-26T11:15:56;0.27;;;0.27;;
70388;SDS011;58659;49.050;8.530;2023-02-26T11:18:26;0.40;;;0.40;;
70388;SDS011;58659;49.050;8.530;2023-02-26T11:21:00;1.10;;;0.63;;
70388;SDS011;58659;49.050;8.530;2023-02-26T11:23:29;0.40;;;0.33;;
70388;SDS011;58659;49.050;8.530;2023-02-26T11:25:58;0.40;;;0.30;;
70388;SDS011;58659;49.050;8.530;2023-02-26T11:28:29;1.43;;;0.90;;
70388;SDS011;58659;49.050;8.530;2023-02-26T11:31:08;0.33;;;0.30;;
70388;SDS011;58659;49.050;8.530;2023-02-26T11:33:39;0.30;;;0.20;;
70388;SDS011;58659;49.050;8.530;2023-02-26T11:36:09;0.40;;;0.40;;
70388;SDS011;58659;49.050;8.530;2023-02-26T11:38:38;0.20;;;0.20;;
70388;SDS011;58659;49.050;8.530;2023-02-26T11:41:04;0.43;;;0.37;;
70388;SDS011;58659;49.050;8.530;2023-02-26T11:43:41;4.00;;;0.40;;
70388;SDS011;58659;49.050;8.530;2023-02-26T11:46:08;0.20;;;0.20;;
70388;SDS011;58659;49.050;8.530;2023-02-26T11:49:08;0.40;;;0.37;;
70388;SDS011;58659;49.050;8.530;2023-02-26T11:51:27;2.03;;;0.63;;
70388;SDS011;58659;49.050;8.530;2023-02-26T11:53:57;0.20;;;0.20;;
70388;SDS011;58659;49.050;8.530;2023-02-26T11:56:37;0.33;;;0.33;;
70388;SDS011;58659;49.050;8.530;2023-02-26T11:59:24;1.93;;;0.40;;
70388;SDS011;58659;49.050;8.530;2023-02-26T12:01:50;0.70;;;0.40;;
70388;SDS011;58659;49.050;8.530;2023-02-26T12:04:18;0.33;;;0.30;;
70388;SDS011;58659;49.050;8.530;2023-02-26T12:06:46;0.63;;;0.30;;
70388;SDS011;58659;49.050;8.530;2023-02-26T12:09:17;0.30;;;0.30;;
70388;SDS011;58659;49.050;8.530;2023-02-26T12:11:50;0.67;;;0.47;;
70388;SDS011;58659;49.050;8.530;2023-02-26T12:14:35;0.47;;;0.47;;
70388;SDS011;58659;49.050;8.530;2023-02-26T12:39:28;0.60;;;0.60;;
70388;SDS011;58659;49.050;8.530;2023-02-26T12:42:05;0.33;;;0.33;;
70388;SDS011;58659;49.050;8.530;2023-02-26T12:44:47;1.70;;;0.77;;
70388;SDS011;58659;49.050;8.530;2023-02-26T12:52:31;3.70;;;0.93;;
70388;SDS011;58659;49.050;8.530;2023-02-26T12:55:22;1.13;;;0.40;;
70388;SDS011;58659;49.050;8.530;2023-02-26T13:20:21;0.77;;;0.60;;
70388;SDS011;58659;49.050;8.530;2023-02-26T13:22:50;0.77;;;0.40;;
70388;SDS011;58659;49.050;8.530;2023-02-26T13:28:00;1.47;;;0.87;;
70388;SDS011;58659;49.050;8.530;2023-02-26T13:33:03;0.77;;;0.60;;
70388;SDS011;58659;49.050;8.530;2023-02-26T13:38:13;0.43;;;0.43;;
70388;SDS011;58659;49.050;8.530;2023-02-26T13:40:50;0.47;;;0.47;;
70388;SDS011;58659;49.050;8.530;2023-02-26T13:43:38;0.20;;;0.20;;
70388;SDS011;58659;49.050;8.530;2023-02-26T13:51:51;0.37;;;0.20;;
70388;SDS011;58659;49.050;8.530;2023-02-26T13:57:09;1.33;;;0.30;;
70388;SDS011;58659;49.050;8.530;2023-02-26T14:04:49;3.40;;;0.43;;
70388;SDS011;58659;49.050;8.530;2023-02-26T14:07:16;0.60;;;0.37;;
70388;SDS011;58659;49.050;8.530;2023-02-26T14:10:32;0.30;;;0.30;;
70388;SDS011;58659;49.050;8.530;2023-02-26T14:13:13;1.00;;;0.30;;
70388;SDS011;58659;49.050;8.530;2023-02-26T14:15:40;0.20;;;0.20;;
70388;SDS011;58659;49.050;8.530;2023-02-26T14:23:54;0.20;;;0.20;;
70388;SDS011;58659;49.050;8.530;2023-02-26T14:26:21;1.03;;;0.30;;
70388;SDS011;58659;49.050;8.530;2023-02-26T14:31:23;0.80;;;0.47;;
70388;SDS011;58659;49.050;8.530;2023-02-26T14:41:56;0.40;;;0.40;;
70388;SDS011;58659;49.050;8.530;2023-02-26T14:44:26;0.20;;;0.20;;
70388;SDS011;58659;49.050;8.530;2023-02-26T14:46:55;0.20;;;0.20;;
70388;SDS011;58659;49.050;8.530;2023-02-26T14:49:31;0.30;;;0.27;;
70388;SDS011;58659;49.050;8.530;2023-02-26T14:52:05;0.20;;;0.20;;
70388;SDS011;58659;49.050;8.530;2023-02-26T15:10:42;1.13;;;0.27;;
70388;SDS011;58659;49.050;8.530;2023-02-26T15:18:36;0.20;;;0.20;;
70388;SDS011;58659;49.050;8.530;2023-02-26T15:21:29;0.20;;;0.20;;
70388;SDS011;58659;49.050;8.530;2023-02-26T15:24:04;0.87;;;0.60;;
70388;SDS011;58659;49.050;8.530;2023-02-26T15:26:32;0.30;;;0.30;;
70388;SDS011;58659;49.050;8.530;2023-02-26T15:29:01;0.23;;;0.23;;
70388;SDS011;58659;49.050;8.530;2023-02-26T15:31:34;0.50;;;0.50;;
70388;SDS011;58659;49.050;8.530;2023-02-26T15:34:04;0.20;;;0.20;;
70388;SDS011;58659;49.050;8.530;2023-02-26T15:36:30;3.17;;;0.47;;
70388;SDS011;58659;49.050;8.530;2023-02-26T15:38:59;0.30;;;0.30;;
70388;SDS011;58659;49.050;8.530;2023-02-26T15:41:29;0.40;;;0.40;;
70388;SDS011;58659;49.050;8.530;2023-02-26T15:43:57;0.37;;;0.30;;
70388;SDS011;58659;49.050;8.530;2023-02-26T15:46:26;0.73;;;0.40;;
70388;SDS011;58659;49.050;8.530;2023-02-26T15:48:58;0.40;;;0.30;;
70388;SDS011;58659;49.050;8.530;2023-02-26T15:51:26;0.33;;;0.30;;
70388;SDS011;58659;49.050;8.530;2023-02-26T15:53:52;0.80;;;0.40;;
70388;SDS011;58659;49.050;8.530;2023-02-26T15:58:59;0.73;;;0.30;;
70388;SDS011;58659;49.050;8.530;2023-02-26T16:01:28;0.20;;;0.20;;
70388;SDS011;58659;49.050;8.530;2023-02-26T16:03:58;0.50;;;0.50;;
70388;SDS011;58659;49.050;8.530;2023-02-26T16:06:37;0.53;;;0.27;;
70388;SDS011;58659;49.050;8.530;2023-02-26T16:09:06;1.37;;;0.60;;
70388;SDS011;58659;49.050;8.530;2023-02-26T16:11:37;1.10;;;0.40;;
70388;SDS011;58659;49.050;8.530;2023-02-26T16:14:06;0.27;;;0.27;;
70388;SDS011;58659;49.050;8.530;2023-02-26T16:16:47;0.40;;;0.40;;
70388;SDS011;58659;49.050;8.530;2023-02-26T16:19:20;0.93;;;0.50;;
70388;SDS011;58659;49.050;8.530;2023-02-26T16:21:54;0.93;;;0.57;;
70388;SDS011;58659;49.050;8.530;2023-02-26T16:24:20;0.33;;;0.30;;
70388;SDS011;58659;49.050;8.530;2023-02-26T16:26:54;0.20;;;0.20;;
70388;SDS011;58659;49.050;8.530;2023-02-26T16:29:26;0.20;;;0.20;;
70388;SDS011;58659;49.050;8.530;2023-02-26T16:31:54;0.53;;;0.20;;
70388;SDS011;58659;49.050;8.530;2023-02-26T16:37:32;0.67;;;0.67;;
70388;SDS011;58659;49.050;8.530;2023-02-26T16:40:19;0.20;;;0.20;;
70388;SDS011;58659;49.050;8.530;2023-02-26T16:47:44;1.40;;;0.57;;
70388;SDS011;58659;49.050;8.530;2023-02-26T16:55:41;0.40;;;0.40;;
70388;SDS011;58659;49.050;8.530;2023-02-26T16:58:14;0.23;;;0.23;;
70388;SDS011;58659;49.050;8.530;2023-02-26T17:00:42;0.50;;;0.50;;
70388;SDS011;58659;49.050;8.530;2023-02-26T17:05:41;1.70;;;0.97;;
70388;SDS011;58659;49.050;8.530;2023-02-26T17:08:14;0.43;;;0.37;;
70388;SDS011;58659;49.050;8.530;2023-02-26T17:13:20;0.50;;;0.30;;
70388;SDS011;58659;49.050;8.530;2023-02-26T17:15:50;0.40;;;0.40;;
70388;SDS011;58659;49.050;8.530;2023-02-26T17:18:17;0.57;;;0.30;;
70388;SDS011;58659;49.050;8.530;2023-02-26T17:20:43;0.10;;;0.10;;
70388;SDS011;58659;49.050;8.530;2023-02-26T17:23:10;0.40;;;0.40;;
70388;SDS011;58659;49.050;8.530;2023-02-26T17:25:41;0.30;;;0.30;;
70388;SDS011;58659;49.050;8.530;2023-02-26T17:28:09;0.40;;;0.40;;
70388;SDS011;58659;49.050;8.530;2023-02-26T17:30:40;0.40;;;0.40;;
70388;SDS011;58659;49.050;8.530;2023-02-26T17:33:05;0.40;;;0.30;;
70388;SDS011;58659;49.050;8.530;2023-02-26T17:35:32;0.40;;;0.37;;
70388;SDS011;58659;49.050;8.530;2023-02-26T17:37:58;0.30;;;0.30;;
70388;SDS011;58659;49.050;8.530;2023-02-26T17:40:28;0.70;;;0.30;;
70388;SDS011;58659;49.050;8.530;2023-02-26T17:42:57;0.50;;;0.38;;
70388;SDS011;58659;49.050;8.530;2023-02-26T17:45:24;0.20;;;0.20;;
70388;SDS011;58659;49.050;8.530;2023-02-26T17:47:49;0.60;;;0.50;;
70388;SDS011;58659;49.050;8.530;2023-02-26T17:50:19;0.97;;;0.70;;
70388;SDS011;58659;49.050;8.530;2023-02-26T17:52:45;0.20;;;0.20;;
70388;SDS011;58659;49.050;8.530;2023-02-26T17:55:10;0.10;;;0.10;;
70388;SDS011;58659;49.050;8.530;2023-02-26T17:57:35;0.30;;;0.30;;
70388;SDS011;58659;49.050;8.530;2023-02-26T18:00:01;0.20;;;0.20;;
70388;SDS011;58659;49.050;8.530;2023-02-26T18:02:26;1.40;;;0.30;;
70388;SDS011;58659;49.050;8.530;2023-02-26T18:04:52;0.77;;;0.47;;
70388;SDS011;58659;49.050;8.530;2023-02-26T18:07:17;0.97;;;0.50;;
70388;SDS011;58659;49.050;8.530;2023-02-26T18:09:44;0.50;;;0.33;;
70388;SDS011;58659;49.050;8.530;2023-02-26T18:12:13;0.20;;;0.20;;
70388;SDS011;58659;49.050;8.530;2023-02-26T18:14:40;0.43;;;0.43;;
70388;SDS011;58659;49.050;8.530;2023-02-26T18:17:06;0.30;;;0.30;;
70388;SDS011;58659;49.050;8.530;2023-02-26T18:19:35;0.63;;;0.30;;
70388;SDS011;58659;49.050;8.530;2023-02-26T18:22:01;0.20;;;0.20;;
70388;SDS011;58659;49.050;8.530;2023-02-26T18:24:26;0.23;;;0.23;;
70388;SDS011;58659;49.050;8.530;2023-02-26T18:26:52;0.30;;;0.30;;
70388;SDS011;58659;49.050;8.530;2023-02-26T18:29:17;0.40;;;0.30;;
70388;SDS011;58659;49.050;8.530;2023-02-26T18:31:43;0.40;;;0.40;;